createdAt,value
2023-01-19T00:02:03.512Z,97267.76
2023-01-19T00:04:35.176Z,97269.37
2023-01-19T00:07:08.381Z,97268.45
2023-01-19T00:09:46.175Z,97267.75
2023-01-19T00:12:17.927Z,97268.64
2023-01-19T00:14:49.638Z,97274.91
2023-01-19T00:17:21.299Z,97278.00
2023-01-19T00:19:52.982Z,97285.88
2023-01-19T00:22:24.871Z,97285.27
2023-01-19T00:24:56.587Z,97282.16
2023-01-19T00:27:30.405Z,97285.45
2023-01-19T00:30:02.112Z,97284.76
2023-01-19T00:32:33.884Z,97287.61
2023-01-19T00:35:05.996Z,97285.05
2023-01-19T00:37:37.657Z,97290.03
2023-01-19T00:40:11.698Z,97289.32
2023-01-19T00:42:45.135Z,97290.94
2023-01-19T00:45:16.516Z,97294.02
2023-01-19T00:47:50.141Z,97292.73
2023-01-19T00:50:22.036Z,97291.98
2023-01-19T00:52:55.433Z,97287.56
2023-01-19T00:55:25.598Z,97285.35
2023-01-19T00:57:57.744Z,97279.17
2023-01-19T01:00:29.630Z,97269.64
2023-01-19T01:03:01.965Z,97269.68
2023-01-19T01:05:33.987Z,97268.59
2023-01-19T01:08:05.905Z,97269.15
2023-01-19T01:10:37.610Z,97268.18
2023-01-19T01:13:20.435Z,97267.77
2023-01-19T01:15:55.424Z,97266.70
2023-01-19T01:18:27.705Z,97265.00
2023-01-19T01:21:05.165Z,97269.17
2023-01-19T01:23:37.235Z,97271.39
2023-01-19T01:26:09.039Z,97267.64
2023-01-19T01:28:40.718Z,97268.14
2023-01-19T01:31:12.520Z,97265.39
2023-01-19T01:33:44.242Z,97268.34
2023-01-19T01:36:15.942Z,97280.61
2023-01-19T01:38:48.030Z,97289.94
2023-01-19T01:41:21.872Z,97288.56
2023-01-19T01:44:00.107Z,97285.46
2023-01-19T01:46:32.911Z,97285.02
2023-01-19T01:49:08.405Z,97280.09
2023-01-19T01:51:44.762Z,97281.42
2023-01-19T01:54:21.801Z,97279.29
2023-01-19T01:56:56.908Z,97270.58
2023-01-19T01:59:34.912Z,97270.34
2023-01-19T02:02:27.244Z,97270.91
2023-01-19T02:05:04.161Z,97282.46
2023-01-19T02:08:02.404Z,97282.98
2023-01-19T02:10:52.037Z,97279.73
2023-01-19T02:13:25.473Z,97281.03
2023-01-19T02:15:57.811Z,97289.03
2023-01-19T02:18:31.809Z,97288.48
2023-01-19T02:21:12.134Z,97288.69
2023-01-19T02:23:47.102Z,97293.81
2023-01-19T02:26:22.614Z,97293.58
2023-01-19T02:28:58.101Z,97297.56
2023-01-19T02:31:32.088Z,97297.52
2023-01-19T02:34:05.080Z,97300.64
2023-01-19T02:36:40.039Z,97303.93
2023-01-19T02:39:13.703Z,97305.13
2023-01-19T02:41:52.576Z,97303.98
2023-01-19T02:44:25.793Z,97300.58
2023-01-19T02:46:57.576Z,97296.80
2023-01-19T02:49:31.635Z,97295.81
2023-01-19T02:52:04.271Z,97297.95
2023-01-19T02:54:47.780Z,97296.11
2023-01-19T02:57:44.284Z,97303.76
2023-01-19T03:00:26.402Z,97299.34
2023-01-19T03:03:13.339Z,97301.36
2023-01-19T03:05:56.704Z,97303.34
2023-01-19T03:08:42.102Z,97306.70
2023-01-19T03:11:14.589Z,97311.13
2023-01-19T03:13:50.763Z,97312.60
2023-01-19T03:16:27.308Z,97306.36
2023-01-19T03:19:03.036Z,97304.98
2023-01-19T03:21:39.069Z,97301.84
2023-01-19T03:24:13.402Z,97301.80
2023-01-19T03:26:47.701Z,97303.23
2023-01-19T03:29:22.832Z,97304.39
2023-01-19T03:31:58.529Z,97301.94
2023-01-19T03:34:30.765Z,97300.44
2023-01-19T03:37:06.262Z,97299.70
2023-01-19T03:39:38.490Z,97305.52
2023-01-19T03:42:14.500Z,97306.48
2023-01-19T03:44:50.600Z,97306.25
2023-01-19T03:47:23.025Z,97303.34
2023-01-19T03:49:55.449Z,97309.14
2023-01-19T03:52:33.485Z,97314.50
2023-01-19T03:55:06.769Z,97317.48
2023-01-19T03:57:39.096Z,97316.14
2023-01-19T04:00:13.378Z,97324.59
2023-01-19T04:02:45.187Z,97324.82
2023-01-19T04:05:17.100Z,97327.16
2023-01-19T04:07:50.677Z,97322.71
2023-01-19T04:10:21.175Z,97325.30
2023-01-19T04:12:57.893Z,97324.47
2023-01-19T04:15:30.660Z,97324.25
2023-01-19T04:18:02.879Z,97327.58
2023-01-19T04:20:34.713Z,97325.34
2023-01-19T04:23:06.484Z,97326.18
2023-01-19T04:25:39.046Z,97330.46
2023-01-19T04:28:10.815Z,97331.37
2023-01-19T04:30:42.681Z,97339.08
2023-01-19T04:33:14.396Z,97350.73
2023-01-19T04:35:47.222Z,97345.05
2023-01-19T04:38:19.746Z,97344.30
2023-01-19T04:40:53.275Z,97347.10
2023-01-19T04:43:24.044Z,97358.19
2023-01-19T04:45:55.768Z,97357.65
2023-01-19T04:48:27.578Z,97351.63
2023-01-19T04:50:59.465Z,97344.23
2023-01-19T04:53:31.222Z,97353.60
2023-01-19T04:56:03.010Z,97363.14
2023-01-19T04:58:34.718Z,97374.77
2023-01-19T05:01:09.955Z,97376.80
2023-01-19T05:03:41.720Z,97377.23
2023-01-19T05:06:13.530Z,97380.83
2023-01-19T05:08:45.547Z,97392.94
2023-01-19T05:11:17.466Z,97395.03
2023-01-19T05:13:50.939Z,97394.42
2023-01-19T05:16:23.511Z,97396.08
2023-01-19T05:18:55.251Z,97393.05
2023-01-19T05:21:27.020Z,97394.50
2023-01-19T05:23:58.716Z,97396.35
2023-01-19T05:26:30.425Z,97392.34
2023-01-19T05:29:02.081Z,97390.06
2023-01-19T05:31:33.846Z,97386.42
2023-01-19T05:34:06.236Z,97382.45
2023-01-19T05:36:37.999Z,97377.09
2023-01-19T05:39:10.055Z,97378.58
2023-01-19T05:41:41.959Z,97377.52
2023-01-19T05:44:14.374Z,97375.46
2023-01-19T05:46:46.247Z,97367.84
2023-01-19T05:49:18.139Z,97362.05
2023-01-19T05:51:49.881Z,97358.80
2023-01-19T05:54:21.583Z,97359.54
2023-01-19T05:56:53.302Z,97362.60
2023-01-19T05:59:25.024Z,97369.75
2023-01-19T06:01:57.174Z,97367.98
2023-01-19T06:04:29.192Z,97365.73
2023-01-19T06:07:02.098Z,97362.91
2023-01-19T06:09:34.032Z,97366.05
2023-01-19T06:12:06.383Z,97360.37
2023-01-19T06:14:38.191Z,97356.14
2023-01-19T06:17:09.925Z,97359.15
2023-01-19T06:19:41.842Z,97364.16
2023-01-19T06:22:13.539Z,97372.20
2023-01-19T06:24:45.410Z,97376.19
2023-01-19T06:27:17.130Z,97375.12
2023-01-19T06:29:48.794Z,97387.77
2023-01-19T06:32:21.104Z,97392.61
2023-01-19T06:34:54.020Z,97402.31
2023-01-19T06:37:28.260Z,97410.77
2023-01-19T06:40:00.162Z,97411.50
2023-01-19T06:42:32.015Z,97416.16
2023-01-19T06:45:03.738Z,97415.73
2023-01-19T06:47:35.768Z,97419.16
2023-01-19T06:50:08.732Z,97417.87
2023-01-19T06:52:42.390Z,97427.52
2023-01-19T06:55:14.509Z,97436.30
2023-01-19T06:57:46.268Z,97446.32
2023-01-19T07:00:19.558Z,97461.66
2023-01-19T07:02:51.325Z,97474.25
2023-01-19T07:05:23.071Z,97484.77
2023-01-19T07:07:58.348Z,97488.68
2023-01-19T07:11:25.097Z,97492.54
2023-01-19T07:13:21.710Z,97498.42
2023-01-19T07:15:53.799Z,97497.98
2023-01-19T07:18:25.553Z,97502.13
2023-01-19T07:20:59.504Z,97504.27
2023-01-19T07:23:31.330Z,97505.75
2023-01-19T07:26:03.593Z,97501.23
2023-01-19T07:28:36.960Z,97500.35
2023-01-19T07:31:10.252Z,97500.08
2023-01-19T07:33:42.144Z,97500.14
2023-01-19T07:36:14.273Z,97501.73
2023-01-19T07:38:45.938Z,97502.42
2023-01-19T07:41:17.707Z,97510.31
2023-01-19T07:43:51.240Z,97508.44
2023-01-19T07:46:22.936Z,97507.67
2023-01-19T07:48:54.655Z,97502.20
2023-01-19T07:51:27.782Z,97492.21
2023-01-19T07:53:59.539Z,97488.81
2023-01-19T07:56:33.860Z,97490.70
2023-01-19T07:59:07.351Z,97493.02
2023-01-19T08:01:40.077Z,97499.42
2023-01-19T08:04:11.862Z,97505.94
2023-01-19T08:06:47.501Z,97511.38
2023-01-19T08:09:19.252Z,97518.83
2023-01-19T08:11:51.015Z,97527.98
2023-01-19T08:14:22.725Z,97535.70
2023-01-19T08:16:54.493Z,97528.86
2023-01-19T08:19:26.509Z,97533.95
2023-01-19T08:21:59.049Z,97542.73
2023-01-19T08:24:31.595Z,97539.70
2023-01-19T08:27:04.011Z,97547.98
2023-01-19T08:29:35.756Z,97550.73
2023-01-19T08:32:08.229Z,97538.23
2023-01-19T08:34:40.020Z,97544.73
2023-01-19T08:37:11.789Z,97549.30
2023-01-19T08:39:43.504Z,97538.27
2023-01-19T08:42:15.310Z,97520.44
2023-01-19T08:44:57.707Z,97530.65
2023-01-19T08:47:30.332Z,97547.57
2023-01-19T08:50:02.143Z,97532.16
2023-01-19T08:52:33.795Z,97520.33
2023-01-19T08:55:06.280Z,97526.02
2023-01-19T08:57:38.119Z,97533.14
2023-01-19T09:00:11.727Z,97532.40
2023-01-19T09:02:43.520Z,97535.86
2023-01-19T09:05:15.425Z,97536.20
2023-01-19T09:07:48.224Z,97545.94
2023-01-19T09:10:21.092Z,97553.01
2023-01-19T09:12:53.485Z,97564.48
2023-01-19T09:15:25.190Z,97567.06
2023-01-19T09:17:56.945Z,97576.11
2023-01-19T09:20:30.984Z,97585.95
2023-01-19T09:23:02.919Z,97572.35
2023-01-19T09:25:34.946Z,97575.73
2023-01-19T09:28:07.626Z,97586.75
2023-01-19T09:30:40.974Z,97588.27
2023-01-19T09:33:14.678Z,97583.15
2023-01-19T09:35:48.243Z,97587.13
2023-01-19T09:38:18.671Z,97586.84
2023-01-19T09:40:53.218Z,97576.36
2023-01-19T09:43:36.802Z,97572.59
2023-01-19T09:46:15.249Z,97568.16
2023-01-19T09:48:49.320Z,97565.48
2023-01-19T09:51:23.204Z,97564.61
2023-01-19T09:54:07.003Z,97566.23
2023-01-19T09:56:37.797Z,97567.57
2023-01-19T09:59:21.842Z,97571.63
2023-01-19T10:02:06.060Z,97570.48
2023-01-19T10:04:43.619Z,97567.27
2023-01-19T10:07:24.609Z,97562.66
2023-01-19T10:10:08.469Z,97559.54
2023-01-19T10:12:44.891Z,97553.83
2023-01-19T10:15:25.689Z,97551.14
2023-01-19T10:18:11.711Z,97550.92
2023-01-19T10:20:47.534Z,97547.39
2023-01-19T10:23:32.861Z,97545.71
2023-01-19T10:26:10.435Z,97538.98
2023-01-19T10:28:43.362Z,97541.57
2023-01-19T10:31:18.410Z,97530.41
2023-01-19T10:33:50.855Z,97532.55
2023-01-19T10:36:27.362Z,97527.40
2023-01-19T10:39:00.558Z,97532.84
2023-01-19T10:41:39.958Z,97532.40
2023-01-19T10:44:12.336Z,97530.94
2023-01-19T10:46:48.233Z,97532.66
2023-01-19T10:49:36.639Z,97536.17
2023-01-19T10:52:19.142Z,97540.30
2023-01-19T10:54:50.931Z,97542.61
2023-01-19T10:57:30.579Z,97541.17
2023-01-19T11:00:02.785Z,97535.69
2023-01-19T11:02:35.197Z,97528.65
2023-01-19T11:05:25.442Z,97527.92
2023-01-19T11:07:57.803Z,97524.63
2023-01-19T11:10:31.020Z,97530.33
2023-01-19T11:13:07.416Z,97527.91
2023-01-19T11:15:45.726Z,97522.65
2023-01-19T11:18:28.478Z,97522.85
2023-01-19T11:21:03.006Z,97517.80
2023-01-19T11:23:41.899Z,97511.61
2023-01-19T11:26:17.225Z,97503.05
2023-01-19T11:28:53.201Z,97501.77
2023-01-19T11:31:34.472Z,97500.36
2023-01-19T11:34:22.987Z,97498.42
2023-01-19T11:37:00.146Z,97498.63
2023-01-19T11:39:33.849Z,97499.15
2023-01-19T11:42:06.871Z,97501.48
2023-01-19T11:44:46.140Z,97503.21
2023-01-19T11:47:24.573Z,97508.27
2023-01-19T11:50:02.165Z,97509.94
2023-01-19T11:52:42.310Z,97501.71
2023-01-19T11:55:23.128Z,97506.06
2023-01-19T11:57:55.811Z,97506.77
2023-01-19T12:00:35.651Z,97508.02
2023-01-19T12:03:16.544Z,97512.25
2023-01-19T12:05:51.064Z,97510.10
2023-01-19T12:08:26.898Z,97507.30
2023-01-19T12:11:00.886Z,97503.80
2023-01-19T12:13:34.503Z,97503.95
2023-01-19T12:16:10.258Z,97505.36
2023-01-19T12:18:45.847Z,97508.47
2023-01-19T12:21:18.519Z,97514.70
2023-01-19T12:24:04.383Z,97516.25
2023-01-19T12:26:39.273Z,97514.52
2023-01-19T12:29:14.661Z,97513.23
2023-01-19T12:31:46.518Z,97513.88
2023-01-19T12:34:43.033Z,97509.69
2023-01-19T12:37:33.636Z,97505.19
2023-01-19T12:40:20.119Z,97506.58
2023-01-19T12:43:01.846Z,97509.88
2023-01-19T12:45:35.121Z,97507.35
2023-01-19T12:48:24.392Z,97509.94
2023-01-19T12:50:56.096Z,97512.69
2023-01-19T12:53:28.426Z,97511.55
2023-01-19T12:56:10.009Z,97516.91
2023-01-19T12:58:49.075Z,97520.67
2023-01-19T13:01:24.709Z,97520.04
2023-01-19T13:04:06.691Z,97513.84
2023-01-19T13:07:10.448Z,97512.92
2023-01-19T13:09:43.138Z,97520.93
2023-01-19T13:12:22.746Z,97523.77
2023-01-19T13:15:30.138Z,97522.09
2023-01-19T13:18:03.771Z,97521.81
2023-01-19T13:20:50.101Z,97522.89
2023-01-19T13:23:25.407Z,97522.94
2023-01-19T13:26:04.640Z,97527.79
2023-01-19T13:28:41.711Z,97534.25
2023-01-19T13:31:14.570Z,97539.09
2023-01-19T13:33:52.771Z,97542.48
2023-01-19T13:36:33.342Z,97545.60
2023-01-19T13:39:08.305Z,97542.23
2023-01-19T13:41:42.225Z,97554.22
2023-01-19T13:44:21.053Z,97557.23
2023-01-19T13:46:54.420Z,97559.54
2023-01-19T13:49:30.757Z,97560.45
2023-01-19T13:52:13.517Z,97562.33
2023-01-19T13:54:53.345Z,97559.41
2023-01-19T13:57:30.047Z,97559.77
2023-01-19T14:00:09.165Z,97564.70
2023-01-19T14:02:41.831Z,97569.25
2023-01-19T14:05:21.842Z,97572.77
2023-01-19T14:08:04.454Z,97575.77
2023-01-19T14:10:37.216Z,97578.55
2023-01-19T14:13:17.059Z,97579.55
2023-01-19T14:15:50.613Z,97581.84
2023-01-19T14:18:32.972Z,97583.84
2023-01-19T14:21:07.675Z,97587.00
2023-01-19T14:23:45.304Z,97588.58
2023-01-19T14:26:42.501Z,97590.96
2023-01-19T14:29:25.373Z,97587.59
2023-01-19T14:32:12.814Z,97589.65
2023-01-19T14:34:46.802Z,97591.60
2023-01-19T14:37:26.088Z,97593.85
2023-01-19T14:40:04.600Z,97596.27
2023-01-19T14:42:45.008Z,97598.08
2023-01-19T14:45:21.606Z,97596.93
2023-01-19T14:48:00.613Z,97599.14
2023-01-19T14:50:35.780Z,97602.56
2023-01-19T14:53:16.331Z,97605.70
2023-01-19T14:55:50.699Z,97602.83
2023-01-19T14:58:25.444Z,97601.19
2023-01-19T15:00:57.197Z,97604.98
2023-01-19T15:03:43.344Z,97602.42
2023-01-19T15:06:18.333Z,97604.33
2023-01-19T15:08:53.227Z,97605.73
2023-01-19T15:11:28.637Z,97609.42
2023-01-19T15:14:00.712Z,97606.52
2023-01-19T15:16:35.659Z,97610.30
2023-01-19T15:19:07.491Z,97609.09
2023-01-19T15:21:41.975Z,97607.61
2023-01-19T15:24:16.347Z,97606.17
2023-01-19T15:26:49.711Z,97610.52
2023-01-19T15:29:24.263Z,97611.66
2023-01-19T15:31:56.008Z,97609.73
2023-01-19T15:34:27.879Z,97616.24
2023-01-19T15:36:59.938Z,97615.52
2023-01-19T15:39:32.103Z,97616.63
2023-01-19T15:42:04.120Z,97613.92
2023-01-19T15:44:35.823Z,97617.45
2023-01-19T15:47:07.590Z,97617.06
2023-01-19T15:49:39.275Z,97618.32
2023-01-19T15:52:10.932Z,97618.44
2023-01-19T15:54:42.614Z,97622.84
2023-01-19T15:57:16.365Z,97620.94
2023-01-19T16:00:18.743Z,97623.23
2023-01-19T16:02:52.070Z,97626.30
2023-01-19T16:05:30.548Z,97627.08
2023-01-19T16:08:09.512Z,97629.20
2023-01-19T16:10:42.028Z,97630.45
2023-01-19T16:13:13.954Z,97633.77
2023-01-19T16:15:45.760Z,97632.59
2023-01-19T16:18:17.580Z,97632.88
2023-01-19T16:20:49.557Z,97640.58
2023-01-19T16:23:21.402Z,97638.33
2023-01-19T16:26:00.102Z,97646.11
2023-01-19T16:28:32.425Z,97651.83
2023-01-19T16:31:04.721Z,97654.05
2023-01-19T16:33:36.469Z,97655.30
2023-01-19T16:36:22.964Z,97653.83
2023-01-19T16:38:55.485Z,97653.70
2023-01-19T16:41:27.355Z,97654.86
2023-01-19T16:44:00.398Z,97658.70
2023-01-19T16:46:35.210Z,97663.70
2023-01-19T16:49:08.392Z,97663.96
2023-01-19T16:51:40.333Z,97660.05
2023-01-19T16:54:15.091Z,97661.64
2023-01-19T16:56:47.465Z,97662.63
2023-01-19T16:59:20.978Z,97663.64
2023-01-19T17:01:53.307Z,97662.73
2023-01-19T17:04:26.685Z,97664.60
2023-01-19T17:06:58.544Z,97671.73
2023-01-19T17:09:30.299Z,97665.36
2023-01-19T17:12:02.119Z,97668.94
2023-01-19T17:14:33.846Z,97663.20
2023-01-19T17:17:05.585Z,97666.95
2023-01-19T17:19:37.690Z,97664.39
2023-01-19T17:22:09.753Z,97663.45
2023-01-19T17:24:43.425Z,97666.84
2023-01-19T17:27:15.132Z,97664.35
2023-01-19T17:29:48.690Z,97669.06
2023-01-19T17:32:21.938Z,97666.13
2023-01-19T17:34:53.821Z,97668.72
2023-01-19T17:37:25.535Z,97671.83
2023-01-19T17:39:58.648Z,97672.85
2023-01-19T17:42:30.314Z,97674.23
2023-01-19T17:45:02.096Z,97672.23
2023-01-19T17:47:33.789Z,97670.01
2023-01-19T17:50:06.419Z,97667.70
2023-01-19T17:52:38.267Z,97672.77
2023-01-19T17:55:11.412Z,97675.77
2023-01-19T17:57:43.330Z,97678.27
2023-01-19T18:00:17.216Z,97682.38
2023-01-19T18:02:51.808Z,97680.75
2023-01-19T18:05:25.527Z,97680.40
2023-01-19T18:07:57.430Z,97679.01
2023-01-19T18:10:29.415Z,97684.17
2023-01-19T18:13:01.132Z,97685.95
2023-01-19T18:15:33.122Z,97686.09
2023-01-19T18:18:05.081Z,97687.81
2023-01-19T18:20:39.895Z,97688.35
2023-01-19T18:23:12.285Z,97687.77
2023-01-19T18:25:44.149Z,97692.96
2023-01-19T18:28:15.850Z,97694.05
2023-01-19T18:30:47.978Z,97698.97
2023-01-19T18:33:19.785Z,97704.02
2023-01-19T18:35:51.537Z,97699.65
2023-01-19T18:38:23.236Z,97699.27
2023-01-19T18:41:04.760Z,97691.56
2023-01-19T18:43:37.089Z,97689.54
2023-01-19T18:46:09.405Z,97699.20
2023-01-19T18:48:41.937Z,97703.41
2023-01-19T18:51:16.020Z,97704.56
2023-01-19T18:53:48.204Z,97705.61
2023-01-19T18:56:20.055Z,97710.73
2023-01-19T18:58:53.339Z,97709.92
2023-01-19T19:01:29.213Z,97707.30
2023-01-19T19:04:02.955Z,97716.41
2023-01-19T19:06:35.755Z,97716.05
2023-01-19T19:09:07.498Z,97717.92
2023-01-19T19:11:39.524Z,97718.10
2023-01-19T19:14:11.909Z,97724.61
2023-01-19T19:16:43.628Z,97730.80
2023-01-19T19:19:16.207Z,97739.38
2023-01-19T19:21:48.971Z,97742.69
2023-01-19T19:24:20.792Z,97746.36
2023-01-19T19:26:52.666Z,97746.79
2023-01-19T19:29:24.383Z,97752.29
2023-01-19T19:31:56.969Z,97751.33
2023-01-19T19:34:29.360Z,97754.77
2023-01-19T19:37:01.505Z,97756.67
2023-01-19T19:39:33.818Z,97763.88
2023-01-19T19:42:05.971Z,97765.85
2023-01-19T19:44:37.689Z,97771.69
2023-01-19T19:47:09.523Z,97784.73
2023-01-19T19:49:41.504Z,97789.83
2023-01-19T19:52:13.254Z,97792.81
2023-01-19T19:54:45.795Z,97790.74
2023-01-19T19:57:17.733Z,97790.23
2023-01-19T19:59:49.647Z,97785.80
2023-01-19T20:02:21.524Z,97789.23
2023-01-19T20:04:54.054Z,97796.36
2023-01-19T20:07:25.824Z,97802.14
2023-01-19T20:09:57.526Z,97802.91
2023-01-19T20:12:29.413Z,97807.09
2023-01-19T20:15:01.149Z,97804.96
2023-01-19T20:17:33.309Z,97801.67
2023-01-19T20:20:05.327Z,97809.60
2023-01-19T20:22:37.240Z,97815.02
2023-01-19T20:25:11.110Z,97822.56
2023-01-19T20:27:44.937Z,97826.94
2023-01-19T20:30:17.416Z,97827.58
2023-01-19T20:32:49.239Z,97838.49
2023-01-19T20:35:21.178Z,97839.36
2023-01-19T20:37:53.131Z,97841.49
2023-01-19T20:40:25.059Z,97843.99
2023-01-19T20:42:56.781Z,97844.50
2023-01-19T20:45:28.562Z,97851.08
2023-01-19T20:48:00.396Z,97854.09
2023-01-19T20:50:32.345Z,97858.49
2023-01-19T20:53:04.288Z,97867.45
2023-01-19T20:55:36.765Z,97869.70
2023-01-19T20:58:09.400Z,97876.41
2023-01-19T21:00:41.551Z,97871.98
2023-01-19T21:03:13.436Z,97881.58
2023-01-19T21:05:47.230Z,97876.90
2023-01-19T21:08:19.324Z,97879.90
2023-01-19T21:10:51.081Z,97877.71
2023-01-19T21:13:22.953Z,97876.91
2023-01-19T21:15:54.796Z,97872.36
2023-01-19T21:18:27.941Z,97869.88
2023-01-19T21:21:00.424Z,97870.90
2023-01-19T21:23:32.440Z,97873.05
2023-01-19T21:26:06.924Z,97871.91
2023-01-19T21:28:42.101Z,97879.06
2023-01-19T21:31:15.012Z,97881.83
2023-01-19T21:33:46.938Z,97886.77
2023-01-19T21:36:18.913Z,97888.08
2023-01-19T21:38:52.694Z,97894.59
2023-01-19T21:41:24.732Z,97898.52
2023-01-19T21:43:56.834Z,97903.32
2023-01-19T21:46:30.486Z,97906.55
2023-01-19T21:49:04.106Z,97904.41
2023-01-19T21:51:37.400Z,97903.08
2023-01-19T21:54:09.522Z,97907.94
2023-01-19T21:56:43.202Z,97911.61
2023-01-19T21:59:17.286Z,97919.05
2023-01-19T22:01:49.923Z,97920.63
2023-01-19T22:04:21.837Z,97927.86
2023-01-19T22:06:53.552Z,97925.00
2023-01-19T22:09:25.239Z,97928.50
2023-01-19T22:11:56.921Z,97931.42
2023-01-19T22:14:29.652Z,97928.23
2023-01-19T22:17:01.347Z,97922.05
2023-01-19T22:19:33.123Z,97923.86
2023-01-19T22:22:04.869Z,97933.13
2023-01-19T22:24:36.566Z,97931.69
2023-01-19T22:27:08.956Z,97940.50
2023-01-19T22:29:40.775Z,97936.41
2023-01-19T22:32:12.770Z,97937.31
2023-01-19T22:34:44.468Z,97941.36
2023-01-19T22:37:16.123Z,97940.79
2023-01-19T22:39:47.790Z,97942.31
2023-01-19T22:42:19.470Z,97947.58
2023-01-19T22:44:51.176Z,97946.80
2023-01-19T22:47:23.034Z,97945.91
2023-01-19T22:49:54.770Z,97947.30
2023-01-19T22:52:26.455Z,97946.90
2023-01-19T22:54:58.278Z,97947.98
2023-01-19T22:57:34.183Z,97946.47
2023-01-19T23:00:08.718Z,97952.11
2023-01-19T23:02:40.491Z,97956.89
2023-01-19T23:05:12.693Z,97957.95
2023-01-19T23:07:44.585Z,97957.63
2023-01-19T23:10:16.724Z,97961.11
2023-01-19T23:12:49.632Z,97964.19
2023-01-19T23:15:21.306Z,97959.02
2023-01-19T23:17:53.740Z,97958.43
2023-01-19T23:20:25.507Z,97959.21
2023-01-19T23:22:57.232Z,97958.69
2023-01-19T23:25:28.960Z,97961.71
2023-01-19T23:28:00.712Z,97961.86
2023-01-19T23:30:32.514Z,97969.13
2023-01-19T23:33:04.355Z,97969.20
2023-01-19T23:35:36.756Z,97969.67
2023-01-19T23:38:08.628Z,97971.40
